Terminal Aerodrome Forecast
Issued by NWS

Home | Current Version | Previous Version | Graphics & Text | Print | Product List | Glossary On
Versions: 1 2 3 4 5 6 7 8 9 10 11 12 13 14
111
FTUS43 KIWX 222320
TAFSBN
TAF
KSBN 222320Z 2300/2324 17003KT P6SM BKN200
     FM231800 04007KT P6SM SCT030 BKN060=

USA.gov is the U.S. government's official web portal to all federal, state and local government web resources and services.